sensor_id;sensor_type;location;lat;lon;timestamp;pressure;altitude;pressure_sealevel;temperature;humidity
12213;BME280;6169;44.158;22.788;2023-01-09T00:02:39;101484.56;;;4.62;72.25
12213;BME280;6169;44.158;22.788;2023-01-09T00:07:41;101463.50;;;3.73;74.28
12213;BME280;6169;44.158;22.788;2023-01-09T00:12:43;101496.84;;;4.39;72.39
12213;BME280;6169;44.158;22.788;2023-01-09T00:17:47;101492.19;;;4.41;71.74
12213;BME280;6169;44.158;22.788;2023-01-09T00:22:50;101497.72;;;4.47;71.08
12213;BME280;6169;44.158;22.788;2023-01-09T00:27:52;101512.19;;;3.94;72.02
12213;BME280;6169;44.158;22.788;2023-01-09T00:32:56;101507.41;;;4.32;72.31
12213;BME280;6169;44.158;22.788;2023-01-09T00:37:58;101508.69;;;4.28;71.97
12213;BME280;6169;44.158;22.788;2023-01-09T00:43:00;101512.38;;;4.61;70.65
12213;BME280;6169;44.158;22.788;2023-01-09T00:48:07;101507.66;;;4.55;70.46
12213;BME280;6169;44.158;22.788;2023-01-09T00:53:15;101507.25;;;4.42;70.77
12213;BME280;6169;44.158;22.788;2023-01-09T00:58:18;101505.44;;;4.51;71.10
12213;BME280;6169;44.158;22.788;2023-01-09T01:03:22;101492.06;;;4.59;71.54
12213;BME280;6169;44.158;22.788;2023-01-09T01:08:24;101489.81;;;4.38;70.84
12213;BME280;6169;44.158;22.788;2023-01-09T01:13:26;101485.06;;;4.74;69.87
12213;BME280;6169;44.158;22.788;2023-01-09T01:18:30;101478.84;;;4.65;69.92
12213;BME280;6169;44.158;22.788;2023-01-09T01:23:32;101477.81;;;4.58;71.68
12213;BME280;6169;44.158;22.788;2023-01-09T01:28:35;101468.25;;;4.56;70.96
12213;BME280;6169;44.158;22.788;2023-01-09T01:33:38;101454.22;;;4.78;70.00
12213;BME280;6169;44.158;22.788;2023-01-09T01:38:41;101454.88;;;4.21;73.03
12213;BME280;6169;44.158;22.788;2023-01-09T01:43:51;101450.47;;;4.55;71.30
12213;BME280;6169;44.158;22.788;2023-01-09T01:48:59;101437.94;;;4.71;71.73
12213;BME280;6169;44.158;22.788;2023-01-09T01:54:05;101422.03;;;5.11;68.96
12213;BME280;6169;44.158;22.788;2023-01-09T01:59:11;101411.13;;;4.88;70.69
12213;BME280;6169;44.158;22.788;2023-01-09T02:04:17;101419.31;;;4.86;70.99
12213;BME280;6169;44.158;22.788;2023-01-09T02:09:21;101420.16;;;4.87;71.14
12213;BME280;6169;44.158;22.788;2023-01-09T02:14:26;101411.94;;;4.88;71.86
12213;BME280;6169;44.158;22.788;2023-01-09T02:19:50;101416.50;;;5.04;71.13
12213;BME280;6169;44.158;22.788;2023-01-09T02:25:29;101419.50;;;5.01;70.97
12213;BME280;6169;44.158;22.788;2023-01-09T02:30:39;101423.03;;;4.93;71.39
12213;BME280;6169;44.158;22.788;2023-01-09T02:35:52;101421.53;;;5.07;71.04
12213;BME280;6169;44.158;22.788;2023-01-09T02:41:04;101400.69;;;5.18;71.07
12213;BME280;6169;44.158;22.788;2023-01-09T02:46:17;101409.25;;;5.21;69.99
12213;BME280;6169;44.158;22.788;2023-01-09T02:51:25;101401.38;;;5.28;70.85
12213;BME280;6169;44.158;22.788;2023-01-09T02:57:02;101398.34;;;5.06;72.14
12213;BME280;6169;44.158;22.788;2023-01-09T03:02:24;101401.53;;;5.18;70.83
12213;BME280;6169;44.158;22.788;2023-01-09T03:07:36;101381.06;;;4.92;71.56
12213;BME280;6169;44.158;22.788;2023-01-09T03:12:42;101373.34;;;4.98;72.10
12213;BME280;6169;44.158;22.788;2023-01-09T03:17:48;101363.09;;;5.01;72.24
12213;BME280;6169;44.158;22.788;2023-01-09T03:22:56;101362.94;;;5.11;71.28
12213;BME280;6169;44.158;22.788;2023-01-09T03:28:00;101355.91;;;5.02;72.43
12213;BME280;6169;44.158;22.788;2023-01-09T03:33:04;101365.44;;;5.12;73.13
12213;BME280;6169;44.158;22.788;2023-01-09T03:38:06;101360.13;;;4.96;73.54
12213;BME280;6169;44.158;22.788;2023-01-09T03:43:09;101363.09;;;5.18;72.40
12213;BME280;6169;44.158;22.788;2023-01-09T03:48:12;101363.13;;;4.93;72.96
12213;BME280;6169;44.158;22.788;2023-01-09T03:53:15;101357.72;;;5.34;72.51
12213;BME280;6169;44.158;22.788;2023-01-09T03:58:18;101360.75;;;5.23;71.91
12213;BME280;6169;44.158;22.788;2023-01-09T04:03:22;101369.28;;;5.34;70.96
12213;BME280;6169;44.158;22.788;2023-01-09T04:08:24;101374.03;;;5.24;72.09
12213;BME280;6169;44.158;22.788;2023-01-09T04:13:27;101365.63;;;5.35;71.10
12213;BME280;6169;44.158;22.788;2023-01-09T04:18:30;101363.91;;;5.34;72.45
12213;BME280;6169;44.158;22.788;2023-01-09T04:23:33;101354.69;;;5.29;71.80
12213;BME280;6169;44.158;22.788;2023-01-09T04:28:35;101354.69;;;5.37;72.81
12213;BME280;6169;44.158;22.788;2023-01-09T04:33:39;101355.16;;;5.49;71.83
12213;BME280;6169;44.158;22.788;2023-01-09T04:38:41;101356.47;;;5.61;71.08
12213;BME280;6169;44.158;22.788;2023-01-09T04:43:43;101350.25;;;5.69;71.60
12213;BME280;6169;44.158;22.788;2023-01-09T04:48:47;101343.91;;;6.01;69.66
12213;BME280;6169;44.158;22.788;2023-01-09T04:53:49;101337.97;;;5.74;70.06
12213;BME280;6169;44.158;22.788;2023-01-09T04:58:52;101353.88;;;5.92;70.11
12213;BME280;6169;44.158;22.788;2023-01-09T05:03:55;101336.50;;;6.03;70.14
12213;BME280;6169;44.158;22.788;2023-01-09T05:08:58;101327.03;;;5.76;69.64
12213;BME280;6169;44.158;22.788;2023-01-09T05:14:00;101313.41;;;5.77;69.51
12213;BME280;6169;44.158;22.788;2023-01-09T05:19:03;101310.19;;;5.90;70.36
12213;BME280;6169;44.158;22.788;2023-01-09T05:24:06;101315.00;;;6.03;69.47
12213;BME280;6169;44.158;22.788;2023-01-09T05:29:09;101315.44;;;5.83;69.99
12213;BME280;6169;44.158;22.788;2023-01-09T05:34:13;101323.16;;;5.78;70.04
12213;BME280;6169;44.158;22.788;2023-01-09T05:39:15;101320.00;;;5.75;70.24
12213;BME280;6169;44.158;22.788;2023-01-09T05:44:17;101315.44;;;5.83;70.36
12213;BME280;6169;44.158;22.788;2023-01-09T05:49:21;101315.94;;;5.79;70.60
12213;BME280;6169;44.158;22.788;2023-01-09T05:54:23;101321.53;;;5.69;71.80
12213;BME280;6169;44.158;22.788;2023-01-09T05:59:25;101312.59;;;5.77;72.06
12213;BME280;6169;44.158;22.788;2023-01-09T06:04:29;101312.69;;;5.92;70.57
12213;BME280;6169;44.158;22.788;2023-01-09T06:09:31;101307.81;;;5.95;70.90
12213;BME280;6169;44.158;22.788;2023-01-09T06:14:33;101309.09;;;5.99;70.07
12213;BME280;6169;44.158;22.788;2023-01-09T06:19:38;101307.38;;;5.83;70.77
12213;BME280;6169;44.158;22.788;2023-01-09T06:24:40;101312.41;;;5.78;71.47
12213;BME280;6169;44.158;22.788;2023-01-09T06:29:42;101327.00;;;5.84;71.31
12213;BME280;6169;44.158;22.788;2023-01-09T06:34:46;101332.59;;;5.74;72.34
12213;BME280;6169;44.158;22.788;2023-01-09T06:39:48;101335.03;;;5.92;71.41
12213;BME280;6169;44.158;22.788;2023-01-09T06:44:50;101334.34;;;5.43;73.49
12213;BME280;6169;44.158;22.788;2023-01-09T06:49:54;101348.16;;;5.87;72.16
12213;BME280;6169;44.158;22.788;2023-01-09T06:54:57;101350.06;;;5.62;72.58
12213;BME280;6169;44.158;22.788;2023-01-09T06:59:59;101340.41;;;5.92;70.90
12213;BME280;6169;44.158;22.788;2023-01-09T07:05:03;101341.00;;;5.71;72.25
12213;BME280;6169;44.158;22.788;2023-01-09T07:10:09;101346.88;;;5.67;72.02
12213;BME280;6169;44.158;22.788;2023-01-09T07:15:12;101334.91;;;5.77;71.87
12213;BME280;6169;44.158;22.788;2023-01-09T07:20:16;101338.09;;;5.89;71.86
12213;BME280;6169;44.158;22.788;2023-01-09T07:25:18;101333.81;;;6.03;72.85
12213;BME280;6169;44.158;22.788;2023-01-09T07:30:20;101333.56;;;5.81;72.84
12213;BME280;6169;44.158;22.788;2023-01-09T07:35:24;101323.38;;;5.69;73.81
12213;BME280;6169;44.158;22.788;2023-01-09T07:40:26;101331.06;;;5.72;72.40
12213;BME280;6169;44.158;22.788;2023-01-09T07:45:29;101325.06;;;5.70;72.96
12213;BME280;6169;44.158;22.788;2023-01-09T07:50:32;101324.50;;;5.82;73.45
12213;BME280;6169;44.158;22.788;2023-01-09T07:55:34;101322.19;;;5.63;73.89
12213;BME280;6169;44.158;22.788;2023-01-09T08:00:37;101326.53;;;5.80;74.55
12213;BME280;6169;44.158;22.788;2023-01-09T08:05:40;101327.22;;;5.74;74.10
12213;BME280;6169;44.158;22.788;2023-01-09T08:10:43;101326.91;;;6.09;73.50
12213;BME280;6169;44.158;22.788;2023-01-09T08:15:45;101323.81;;;6.20;72.31
12213;BME280;6169;44.158;22.788;2023-01-09T08:20:49;101302.75;;;6.00;72.72
12213;BME280;6169;44.158;22.788;2023-01-09T08:25:51;101306.91;;;6.34;72.24
12213;BME280;6169;44.158;22.788;2023-01-09T08:30:54;101303.59;;;6.24;72.45
12213;BME280;6169;44.158;22.788;2023-01-09T08:35:57;101294.03;;;6.44;72.39
12213;BME280;6169;44.158;22.788;2023-01-09T08:41:00;101311.53;;;6.63;71.90
12213;BME280;6169;44.158;22.788;2023-01-09T08:46:22;101288.22;;;6.33;73.25
12213;BME280;6169;44.158;22.788;2023-01-09T08:51:43;101304.56;;;6.54;72.64
12213;BME280;6169;44.158;22.788;2023-01-09T08:56:45;101302.63;;;6.63;72.32
12213;BME280;6169;44.158;22.788;2023-01-09T09:01:48;101296.00;;;6.50;72.26
12213;BME280;6169;44.158;22.788;2023-01-09T09:06:51;101286.72;;;6.53;72.72
12213;BME280;6169;44.158;22.788;2023-01-09T09:11:54;101272.31;;;6.46;71.92
12213;BME280;6169;44.158;22.788;2023-01-09T09:16:56;101253.88;;;6.58;72.44
12213;BME280;6169;44.158;22.788;2023-01-09T09:22:00;101255.81;;;6.49;72.92
12213;BME280;6169;44.158;22.788;2023-01-09T09:27:02;101232.25;;;6.28;73.63
12213;BME280;6169;44.158;22.788;2023-01-09T09:32:04;101228.44;;;6.45;72.34
12213;BME280;6169;44.158;22.788;2023-01-09T09:37:08;101222.41;;;6.58;71.93
12213;BME280;6169;44.158;22.788;2023-01-09T09:42:24;101217.63;;;6.98;72.02
12213;BME280;6169;44.158;22.788;2023-01-09T09:47:54;101204.47;;;6.73;72.62
12213;BME280;6169;44.158;22.788;2023-01-09T09:53:06;101206.88;;;6.98;71.60
12213;BME280;6169;44.158;22.788;2023-01-09T09:58:17;101200.28;;;6.71;70.84
12213;BME280;6169;44.158;22.788;2023-01-09T10:03:23;101193.84;;;6.72;70.86
12213;BME280;6169;44.158;22.788;2023-01-09T10:08:35;101210.97;;;6.79;71.30
12213;BME280;6169;44.158;22.788;2023-01-09T10:13:38;101200.56;;;6.91;71.41
12213;BME280;6169;44.158;22.788;2023-01-09T10:19:04;101173.44;;;6.92;70.22
12213;BME280;6169;44.158;22.788;2023-01-09T10:24:22;101187.16;;;7.27;68.92
12213;BME280;6169;44.158;22.788;2023-01-09T10:29:49;101172.50;;;7.15;69.36
12213;BME280;6169;44.158;22.788;2023-01-09T10:35:04;101172.78;;;7.20;69.40
12213;BME280;6169;44.158;22.788;2023-01-09T10:40:19;101151.41;;;7.04;69.32
12213;BME280;6169;44.158;22.788;2023-01-09T10:45:25;101153.91;;;7.20;70.53
12213;BME280;6169;44.158;22.788;2023-01-09T10:50:33;101154.56;;;7.22;70.04
12213;BME280;6169;44.158;22.788;2023-01-09T10:55:40;101141.13;;;6.63;71.79
12213;BME280;6169;44.158;22.788;2023-01-09T11:00:45;101128.59;;;6.70;71.57
12213;BME280;6169;44.158;22.788;2023-01-09T11:05:50;101119.28;;;7.02;72.17
12213;BME280;6169;44.158;22.788;2023-01-09T11:10:56;101117.00;;;7.35;71.37
12213;BME280;6169;44.158;22.788;2023-01-09T11:16:01;101093.34;;;7.16;71.58
12213;BME280;6169;44.158;22.788;2023-01-09T11:21:24;101077.97;;;7.31;71.90
12213;BME280;6169;44.158;22.788;2023-01-09T11:26:30;101054.53;;;7.10;70.76
12213;BME280;6169;44.158;22.788;2023-01-09T11:31:34;101059.63;;;7.42;71.27
12213;BME280;6169;44.158;22.788;2023-01-09T11:36:37;101059.75;;;7.33;70.68
12213;BME280;6169;44.158;22.788;2023-01-09T11:41:41;101067.63;;;7.13;71.40
12213;BME280;6169;44.158;22.788;2023-01-09T11:46:43;101053.28;;;6.91;71.32
12213;BME280;6169;44.158;22.788;2023-01-09T11:52:04;101030.03;;;6.54;73.05
12213;BME280;6169;44.158;22.788;2023-01-09T11:57:14;101026.47;;;6.83;72.27
12213;BME280;6169;44.158;22.788;2023-01-09T12:02:50;101009.44;;;6.98;72.26
12213;BME280;6169;44.158;22.788;2023-01-09T12:08:21;101020.03;;;7.21;71.30
12213;BME280;6169;44.158;22.788;2023-01-09T12:13:37;101015.69;;;6.83;73.76
12213;BME280;6169;44.158;22.788;2023-01-09T12:18:53;101001.38;;;7.19;73.01
12213;BME280;6169;44.158;22.788;2023-01-09T12:24:06;101013.22;;;7.03;73.29
12213;BME280;6169;44.158;22.788;2023-01-09T12:29:38;101006.00;;;7.25;72.09
12213;BME280;6169;44.158;22.788;2023-01-09T12:34:53;100998.25;;;7.15;71.69
12213;BME280;6169;44.158;22.788;2023-01-09T12:40:04;100989.25;;;7.08;73.07
12213;BME280;6169;44.158;22.788;2023-01-09T12:45:33;100987.56;;;7.29;72.83
12213;BME280;6169;44.158;22.788;2023-01-09T12:50:49;100976.28;;;6.97;73.11
12213;BME280;6169;44.158;22.788;2023-01-09T12:55:58;100972.66;;;6.90;74.53
12213;BME280;6169;44.158;22.788;2023-01-09T13:01:04;100979.03;;;7.04;73.03
12213;BME280;6169;44.158;22.788;2023-01-09T13:06:13;100970.69;;;7.20;72.31
12213;BME280;6169;44.158;22.788;2023-01-09T13:11:23;100978.66;;;6.85;73.70
12213;BME280;6169;44.158;22.788;2023-01-09T13:16:33;100960.94;;;6.98;74.63
12213;BME280;6169;44.158;22.788;2023-01-09T13:21:41;100939.66;;;6.81;74.51
12213;BME280;6169;44.158;22.788;2023-01-09T13:26:46;100939.94;;;7.08;73.84
12213;BME280;6169;44.158;22.788;2023-01-09T13:32:23;100946.28;;;7.00;74.10
12213;BME280;6169;44.158;22.788;2023-01-09T13:37:28;100947.81;;;7.09;73.24
12213;BME280;6169;44.158;22.788;2023-01-09T13:42:31;100936.41;;;7.07;73.16
12213;BME280;6169;44.158;22.788;2023-01-09T13:48:26;100883.16;;;6.66;73.96
12213;BME280;6169;44.158;22.788;2023-01-09T13:53:45;100945.06;;;7.03;73.96
12213;BME280;6169;44.158;22.788;2023-01-09T13:59:01;100949.91;;;6.92;73.77
12213;BME280;6169;44.158;22.788;2023-01-09T14:04:41;100940.06;;;7.00;73.51
12213;BME280;6169;44.158;22.788;2023-01-09T14:09:47;100937.94;;;6.95;73.91
12213;BME280;6169;44.158;22.788;2023-01-09T14:14:52;100920.38;;;6.99;73.74
12213;BME280;6169;44.158;22.788;2023-01-09T14:20:00;100924.53;;;6.80;73.54
12213;BME280;6169;44.158;22.788;2023-01-09T14:25:08;100918.78;;;7.05;73.00
12213;BME280;6169;44.158;22.788;2023-01-09T14:30:30;100920.28;;;6.92;74.08
12213;BME280;6169;44.158;22.788;2023-01-09T14:35:46;100800.41;;;6.11;74.96
12213;BME280;6169;44.158;22.788;2023-01-09T14:40:53;100899.41;;;6.94;74.54
12213;BME280;6169;44.158;22.788;2023-01-09T14:46:03;100878.88;;;6.72;74.54
12213;BME280;6169;44.158;22.788;2023-01-09T14:51:14;100886.44;;;7.05;72.78
12213;BME280;6169;44.158;22.788;2023-01-09T14:56:26;100869.50;;;6.89;74.09
12213;BME280;6169;44.158;22.788;2023-01-09T15:01:29;100856.97;;;6.54;75.70
12213;BME280;6169;44.158;22.788;2023-01-09T15:06:35;100858.34;;;6.49;76.32
12213;BME280;6169;44.158;22.788;2023-01-09T15:11:39;100851.69;;;6.67;76.05
12213;BME280;6169;44.158;22.788;2023-01-09T15:16:44;100855.81;;;6.63;76.21
12213;BME280;6169;44.158;22.788;2023-01-09T15:21:57;100850.94;;;6.52;76.95
12213;BME280;6169;44.158;22.788;2023-01-09T15:27:01;100854.72;;;6.57;76.80
12213;BME280;6169;44.158;22.788;2023-01-09T15:32:07;100842.97;;;6.43;77.90
12213;BME280;6169;44.158;22.788;2023-01-09T15:37:23;100836.31;;;6.39;77.57
12213;BME280;6169;44.158;22.788;2023-01-09T15:42:27;100838.75;;;6.34;77.96
12213;BME280;6169;44.158;22.788;2023-01-09T15:47:48;100844.75;;;6.36;78.00
12213;BME280;6169;44.158;22.788;2023-01-09T15:52:53;100844.75;;;6.36;78.74
12213;BME280;6169;44.158;22.788;2023-01-09T15:57:55;100848.75;;;6.62;77.80
12213;BME280;6169;44.158;22.788;2023-01-09T16:02:58;100838.25;;;6.67;77.89
12213;BME280;6169;44.158;22.788;2023-01-09T16:08:23;100855.50;;;6.51;78.58
12213;BME280;6169;44.158;22.788;2023-01-09T16:13:28;100847.78;;;6.69;78.04
12213;BME280;6169;44.158;22.788;2023-01-09T16:18:34;100840.88;;;6.82;76.90
12213;BME280;6169;44.158;22.788;2023-01-09T16:23:50;100845.09;;;6.91;76.28
12213;BME280;6169;44.158;22.788;2023-01-09T16:28:53;100840.50;;;6.85;76.61
12213;BME280;6169;44.158;22.788;2023-01-09T16:33:58;100819.69;;;7.00;76.24
12213;BME280;6169;44.158;22.788;2023-01-09T16:39:03;100816.69;;;7.10;75.97
12213;BME280;6169;44.158;22.788;2023-01-09T16:44:06;100813.34;;;7.08;75.57
12213;BME280;6169;44.158;22.788;2023-01-09T16:49:15;100817.25;;;7.05;74.76
12213;BME280;6169;44.158;22.788;2023-01-09T16:54:20;100818.56;;;6.88;76.14
12213;BME280;6169;44.158;22.788;2023-01-09T16:59:25;100813.31;;;6.80;76.46
12213;BME280;6169;44.158;22.788;2023-01-09T17:04:28;100797.19;;;6.86;76.10
12213;BME280;6169;44.158;22.788;2023-01-09T17:09:31;100810.44;;;6.60;77.39
12213;BME280;6169;44.158;22.788;2023-01-09T17:14:34;100803.59;;;6.57;76.90
12213;BME280;6169;44.158;22.788;2023-01-09T17:19:36;100783.00;;;6.71;76.63
12213;BME280;6169;44.158;22.788;2023-01-09T17:24:40;100783.78;;;6.43;77.24
12213;BME280;6169;44.158;22.788;2023-01-09T17:30:00;100769.84;;;6.61;77.40
12213;BME280;6169;44.158;22.788;2023-01-09T17:35:03;100768.22;;;6.88;76.07
12213;BME280;6169;44.158;22.788;2023-01-09T17:40:14;100751.56;;;6.78;75.29
12213;BME280;6169;44.158;22.788;2023-01-09T17:45:18;100734.41;;;6.79;75.96
12213;BME280;6169;44.158;22.788;2023-01-09T17:50:20;100730.09;;;6.57;75.65
12213;BME280;6169;44.158;22.788;2023-01-09T17:55:24;100717.03;;;6.54;76.82
12213;BME280;6169;44.158;22.788;2023-01-09T18:00:28;100720.84;;;6.66;76.89
12213;BME280;6169;44.158;22.788;2023-01-09T18:05:32;100722.47;;;6.88;75.85
12213;BME280;6169;44.158;22.788;2023-01-09T18:10:38;100732.41;;;6.60;77.39
12213;BME280;6169;44.158;22.788;2023-01-09T18:15:41;100740.47;;;6.60;77.16
12213;BME280;6169;44.158;22.788;2023-01-09T18:20:43;100727.59;;;6.83;77.13
12213;BME280;6169;44.158;22.788;2023-01-09T18:25:47;100731.03;;;6.70;76.79
12213;BME280;6169;44.158;22.788;2023-01-09T18:30:50;100712.50;;;6.89;76.81
12213;BME280;6169;44.158;22.788;2023-01-09T18:35:53;100721.16;;;6.84;76.70
12213;BME280;6169;44.158;22.788;2023-01-09T18:40:58;100719.88;;;6.73;76.04
12213;BME280;6169;44.158;22.788;2023-01-09T18:46:04;100712.03;;;6.79;75.94
12213;BME280;6169;44.158;22.788;2023-01-09T18:51:07;100707.00;;;6.69;76.47
12213;BME280;6169;44.158;22.788;2023-01-09T18:56:11;100695.31;;;6.62;76.84
12213;BME280;6169;44.158;22.788;2023-01-09T19:01:14;100698.56;;;6.50;77.96
12213;BME280;6169;44.158;22.788;2023-01-09T19:06:16;100714.69;;;6.50;78.27
12213;BME280;6169;44.158;22.788;2023-01-09T19:11:20;100699.59;;;6.49;78.38
12213;BME280;6169;44.158;22.788;2023-01-09T19:16:23;100675.38;;;6.78;76.90
12213;BME280;6169;44.158;22.788;2023-01-09T19:21:25;100673.66;;;6.70;77.65
12213;BME280;6169;44.158;22.788;2023-01-09T19:26:29;100678.19;;;6.63;77.93
12213;BME280;6169;44.158;22.788;2023-01-09T19:31:32;100654.34;;;6.60;78.29
12213;BME280;6169;44.158;22.788;2023-01-09T19:36:34;100650.28;;;6.70;77.21
12213;BME280;6169;44.158;22.788;2023-01-09T19:41:38;100640.34;;;6.71;77.95
12213;BME280;6169;44.158;22.788;2023-01-09T19:46:40;100632.06;;;6.72;77.96
12213;BME280;6169;44.158;22.788;2023-01-09T19:51:43;100634.56;;;6.74;78.57
12213;BME280;6169;44.158;22.788;2023-01-09T19:56:47;100610.34;;;6.81;78.04
12213;BME280;6169;44.158;22.788;2023-01-09T20:01:49;100602.34;;;6.87;76.88
12213;BME280;6169;44.158;22.788;2023-01-09T20:06:51;100588.09;;;7.07;76.53
12213;BME280;6169;44.158;22.788;2023-01-09T20:11:55;100579.66;;;7.10;75.62
12213;BME280;6169;44.158;22.788;2023-01-09T20:16:58;100560.50;;;6.98;76.43
12213;BME280;6169;44.158;22.788;2023-01-09T20:22:03;100572.16;;;6.99;76.12
12213;BME280;6169;44.158;22.788;2023-01-09T20:27:07;100563.84;;;7.00;76.09
12213;BME280;6169;44.158;22.788;2023-01-09T20:32:09;100553.88;;;6.94;77.10
12213;BME280;6169;44.158;22.788;2023-01-09T20:37:12;100549.91;;;6.90;76.82
12213;BME280;6169;44.158;22.788;2023-01-09T20:42:15;100548.75;;;6.99;76.34
12213;BME280;6169;44.158;22.788;2023-01-09T20:47:18;100540.78;;;6.84;76.92
12213;BME280;6169;44.158;22.788;2023-01-09T20:52:21;100520.53;;;6.88;76.04
12213;BME280;6169;44.158;22.788;2023-01-09T20:57:25;100512.31;;;6.62;77.29
12213;BME280;6169;44.158;22.788;2023-01-09T21:02:28;100524.75;;;6.63;77.97
12213;BME280;6169;44.158;22.788;2023-01-09T21:07:30;100519.56;;;6.61;77.69
12213;BME280;6169;44.158;22.788;2023-01-09T21:12:34;100541.81;;;6.42;78.24
12213;BME280;6169;44.158;22.788;2023-01-09T21:17:38;100540.09;;;6.69;77.59
12213;BME280;6169;44.158;22.788;2023-01-09T21:22:40;100551.19;;;6.53;78.60
12213;BME280;6169;44.158;22.788;2023-01-09T21:27:44;100543.75;;;6.48;78.16
12213;BME280;6169;44.158;22.788;2023-01-09T21:32:47;100547.13;;;6.28;79.55
12213;BME280;6169;44.158;22.788;2023-01-09T21:37:49;100535.44;;;6.49;77.81
12213;BME280;6169;44.158;22.788;2023-01-09T21:42:53;100520.13;;;6.50;78.50
12213;BME280;6169;44.158;22.788;2023-01-09T21:48:13;100499.31;;;6.65;78.29
12213;BME280;6169;44.158;22.788;2023-01-09T21:53:15;100490.44;;;6.71;77.14
12213;BME280;6169;44.158;22.788;2023-01-09T21:58:19;100506.56;;;6.65;76.94
12213;BME280;6169;44.158;22.788;2023-01-09T22:03:21;100505.91;;;6.21;78.42
12213;BME280;6169;44.158;22.788;2023-01-09T22:08:23;100491.56;;;6.42;78.43
12213;BME280;6169;44.158;22.788;2023-01-09T22:13:27;100477.81;;;6.72;77.42
12213;BME280;6169;44.158;22.788;2023-01-09T22:18:30;100482.03;;;6.40;77.91
12213;BME280;6169;44.158;22.788;2023-01-09T22:23:33;100422.22;;;6.44;78.18
12213;BME280;6169;44.158;22.788;2023-01-09T22:28:37;100428.88;;;6.48;77.78
12213;BME280;6169;44.158;22.788;2023-01-09T22:33:39;100436.81;;;6.77;76.48
12213;BME280;6169;44.158;22.788;2023-01-09T22:38:42;100453.91;;;6.49;77.61
12213;BME280;6169;44.158;22.788;2023-01-09T22:43:45;100466.09;;;6.45;78.01
12213;BME280;6169;44.158;22.788;2023-01-09T22:48:47;100447.81;;;6.34;77.87
12213;BME280;6169;44.158;22.788;2023-01-09T22:53:50;100456.00;;;6.54;78.08
12213;BME280;6169;44.158;22.788;2023-01-09T22:58:54;100410.78;;;6.29;77.77
12213;BME280;6169;44.158;22.788;2023-01-09T23:03:57;100386.41;;;6.37;77.41
12213;BME280;6169;44.158;22.788;2023-01-09T23:09:00;100396.00;;;6.60;77.49
12213;BME280;6169;44.158;22.788;2023-01-09T23:14:03;100404.28;;;6.65;77.14
12213;BME280;6169;44.158;22.788;2023-01-09T23:19:06;100418.50;;;6.45;78.03
12213;BME280;6169;44.158;22.788;2023-01-09T23:24:09;100395.81;;;6.68;76.74
12213;BME280;6169;44.158;22.788;2023-01-09T23:29:13;100386.91;;;6.74;76.93
12213;BME280;6169;44.158;22.788;2023-01-09T23:34:17;100399.03;;;6.43;77.33
12213;BME280;6169;44.158;22.788;2023-01-09T23:39:22;100385.38;;;6.45;76.96
12213;BME280;6169;44.158;22.788;2023-01-09T23:44:26;100412.03;;;6.33;76.87
12213;BME280;6169;44.158;22.788;2023-01-09T23:49:29;100390.56;;;6.40;77.98
12213;BME280;6169;44.158;22.788;2023-01-09T23:54:31;100390.63;;;6.60;77.01
12213;BME280;6169;44.158;22.788;2023-01-09T23:59:35;100396.19;;;6.58;76.37
